createdAt,value
2023-03-05T00:02:09.353Z,5.75
2023-03-05T00:04:38.520Z,5.68
2023-03-05T00:07:09.416Z,6.10
2023-03-05T00:09:38.611Z,6.00
2023-03-05T00:12:09.795Z,6.05
2023-03-05T00:14:38.959Z,5.97
2023-03-05T00:17:08.112Z,6.78
2023-03-05T00:19:37.352Z,5.80
2023-03-05T00:22:06.681Z,5.78
2023-03-05T00:24:35.886Z,8.10
2023-03-05T00:27:05.396Z,6.18
2023-03-05T00:29:36.024Z,6.45
2023-03-05T00:32:05.244Z,7.72
2023-03-05T00:34:34.389Z,5.93
2023-03-05T00:37:03.790Z,7.30
2023-03-05T00:39:32.951Z,6.22
2023-03-05T00:42:02.123Z,6.15
2023-03-05T00:44:31.309Z,6.05
2023-03-05T00:47:01.950Z,7.05
2023-03-05T00:49:31.196Z,5.90
2023-03-05T00:52:00.413Z,7.15
2023-03-05T00:54:29.607Z,5.22
2023-03-05T00:56:58.758Z,6.55
2023-03-05T00:59:28.026Z,6.82
2023-03-05T01:01:57.211Z,5.80
2023-03-05T01:04:28.067Z,7.25
2023-03-05T01:06:57.216Z,6.32
2023-03-05T01:09:26.645Z,6.20
2023-03-05T01:11:56.259Z,6.82
2023-03-05T01:14:27.926Z,6.65
2023-03-05T01:16:57.253Z,6.10
2023-03-05T01:19:27.869Z,6.90
2023-03-05T01:21:57.402Z,5.68
2023-03-05T01:24:26.608Z,6.05
2023-03-05T01:26:56.012Z,6.13
2023-03-05T01:29:25.200Z,5.97
2023-03-05T01:31:54.497Z,6.50
2023-03-05T01:34:23.913Z,6.72
2023-03-05T01:36:54.610Z,8.02
2023-03-05T01:39:23.811Z,5.88
2023-03-05T01:41:53.111Z,6.75
2023-03-05T01:44:27.357Z,7.63
2023-03-05T01:46:56.761Z,6.85
2023-03-05T01:49:28.163Z,6.53
2023-03-05T01:52:04.422Z,6.13
2023-03-05T01:54:36.732Z,6.50
2023-03-05T01:57:10.999Z,6.20
2023-03-05T01:59:42.183Z,6.15
2023-03-05T02:02:11.469Z,6.03
2023-03-05T02:04:47.381Z,6.15
2023-03-05T02:07:18.563Z,6.35
2023-03-05T02:09:47.782Z,7.10
2023-03-05T02:12:17.745Z,6.65
2023-03-05T02:14:49.207Z,7.40
2023-03-05T02:17:18.818Z,6.57
2023-03-05T02:19:49.919Z,6.22
2023-03-05T02:22:22.739Z,6.15
2023-03-05T02:24:52.310Z,6.38
2023-03-05T02:27:27.380Z,6.57
2023-03-05T02:29:56.989Z,6.53
2023-03-05T02:32:26.193Z,6.63
2023-03-05T02:34:55.373Z,6.97
2023-03-05T02:37:26.237Z,7.13
2023-03-05T02:39:55.421Z,6.93
2023-03-05T02:42:25.117Z,6.13
2023-03-05T02:44:54.257Z,6.43
2023-03-05T02:47:23.440Z,6.78
2023-03-05T02:49:53.062Z,6.03
2023-03-05T02:52:23.441Z,6.50
2023-03-05T02:54:55.274Z,7.38
2023-03-05T02:57:26.515Z,6.88
2023-03-05T02:59:57.097Z,6.75
2023-03-05T03:02:26.326Z,6.13
2023-03-05T03:04:55.510Z,7.60
2023-03-05T03:07:24.834Z,7.20
2023-03-05T03:09:55.449Z,6.80
2023-03-05T03:12:24.602Z,6.70
2023-03-05T03:14:53.794Z,7.80
2023-03-05T03:17:23.066Z,8.05
2023-03-05T03:19:52.260Z,7.82
2023-03-05T03:22:21.446Z,9.13
2023-03-05T03:24:50.675Z,7.22
2023-03-05T03:27:21.248Z,7.10
2023-03-05T03:29:50.440Z,6.80
2023-03-05T03:32:19.843Z,7.63
2023-03-05T03:34:49.244Z,6.97
2023-03-05T03:37:18.515Z,7.35
2023-03-05T03:39:47.734Z,6.65
2023-03-05T03:42:21.226Z,7.15
2023-03-05T03:44:51.049Z,8.15
2023-03-05T03:47:20.551Z,7.13
2023-03-05T03:49:49.858Z,8.30
2023-03-05T03:52:19.171Z,8.07
2023-03-05T03:54:48.308Z,8.00
2023-03-05T03:57:17.512Z,7.93
2023-03-05T03:59:48.097Z,8.50
2023-03-05T04:02:17.415Z,7.90
2023-03-05T04:04:46.680Z,7.88
2023-03-05T04:07:15.933Z,8.38
2023-03-05T04:09:45.276Z,8.23
2023-03-05T04:12:18.479Z,8.43
2023-03-05T04:14:50.038Z,8.57
2023-03-05T04:17:19.497Z,8.57
2023-03-05T04:19:48.622Z,7.95
2023-03-05T04:22:19.092Z,9.63
2023-03-05T04:24:48.368Z,8.50
2023-03-05T04:27:17.571Z,8.40
2023-03-05T04:29:48.442Z,7.80
2023-03-05T04:32:23.375Z,7.60
2023-03-05T04:34:52.842Z,8.68
2023-03-05T04:37:22.024Z,9.13
2023-03-05T04:39:51.170Z,8.63
2023-03-05T04:42:21.253Z,9.52
2023-03-05T04:44:52.749Z,8.82
2023-03-05T04:47:22.326Z,8.45
2023-03-05T04:49:51.607Z,8.50
2023-03-05T04:52:20.819Z,8.43
2023-03-05T04:54:49.929Z,10.32
2023-03-05T04:57:19.698Z,8.27
2023-03-05T04:59:48.845Z,8.88
2023-03-05T05:02:19.441Z,8.05
2023-03-05T05:04:48.820Z,8.93
2023-03-05T05:07:18.147Z,9.57
2023-03-05T05:09:47.392Z,8.27
2023-03-05T05:12:16.554Z,9.02
2023-03-05T05:14:45.759Z,10.25
2023-03-05T05:17:14.925Z,9.77
2023-03-05T05:19:45.508Z,9.40
2023-03-05T05:22:14.703Z,8.55
2023-03-05T05:24:43.937Z,8.88
2023-03-05T05:27:13.212Z,9.00
2023-03-05T05:29:42.409Z,9.75
2023-03-05T05:32:11.821Z,9.15
2023-03-05T05:34:40.965Z,9.15
2023-03-05T05:37:11.670Z,9.40
2023-03-05T05:39:40.876Z,9.55
2023-03-05T05:42:10.298Z,10.35
2023-03-05T05:44:39.417Z,10.25
2023-03-05T05:47:08.891Z,9.50
2023-03-05T05:49:38.079Z,9.05
2023-03-05T05:52:07.355Z,9.32
2023-03-05T05:54:38.022Z,9.25
2023-03-05T05:57:07.471Z,9.10
2023-03-05T05:59:37.631Z,9.52
2023-03-05T06:02:08.029Z,11.00
2023-03-05T06:04:37.667Z,10.45
2023-03-05T06:07:07.015Z,9.23
2023-03-05T06:09:38.476Z,9.63
2023-03-05T06:12:09.017Z,12.25
2023-03-05T06:14:38.276Z,9.57
2023-03-05T06:17:07.553Z,10.50
2023-03-05T06:19:36.743Z,9.98
2023-03-05T06:22:06.977Z,9.50
2023-03-05T06:24:38.490Z,9.40
2023-03-05T06:27:07.988Z,9.50
2023-03-05T06:29:37.403Z,11.75
2023-03-05T06:32:07.254Z,15.15
2023-03-05T06:34:36.580Z,10.25
2023-03-05T06:37:05.961Z,10.90
2023-03-05T06:39:35.314Z,10.77
2023-03-05T06:42:06.306Z,10.88
2023-03-05T06:44:35.491Z,9.48
2023-03-05T06:47:06.750Z,9.43
2023-03-05T06:49:36.035Z,8.73
2023-03-05T06:52:05.781Z,14.15
2023-03-05T06:54:35.110Z,9.25
2023-03-05T06:57:05.898Z,8.95
2023-03-05T06:59:35.037Z,11.20
2023-03-05T07:02:04.263Z,10.48
2023-03-05T07:04:33.497Z,11.10
2023-03-05T07:07:02.746Z,9.90
2023-03-05T07:09:32.045Z,8.98
2023-03-05T07:12:01.182Z,9.70
2023-03-05T07:14:31.727Z,11.85
2023-03-05T07:17:01.037Z,11.07
2023-03-05T07:19:30.202Z,9.50
2023-03-05T07:21:59.460Z,9.48
2023-03-05T07:24:30.139Z,10.75
2023-03-05T07:26:59.476Z,9.68
2023-03-05T07:29:29.912Z,7.88
2023-03-05T07:32:00.589Z,6.72
2023-03-05T07:34:29.898Z,8.15
2023-03-05T07:36:59.428Z,7.97
2023-03-05T07:39:28.871Z,7.88
2023-03-05T07:41:58.173Z,7.45
2023-03-05T07:44:32.899Z,9.73
2023-03-05T07:47:03.676Z,12.55
2023-03-05T07:49:33.061Z,18.90
2023-03-05T07:52:02.597Z,15.07
2023-03-05T07:54:32.510Z,15.10
2023-03-05T07:57:02.718Z,11.02
2023-03-05T07:59:32.861Z,14.68
2023-03-05T08:02:03.853Z,11.63
2023-03-05T08:04:33.563Z,12.75
2023-03-05T08:07:03.791Z,13.60
2023-03-05T08:09:33.065Z,14.07
2023-03-05T08:12:02.257Z,11.25
2023-03-05T08:14:52.779Z,12.45
2023-03-05T08:17:23.989Z,16.38
2023-03-05T08:19:58.501Z,9.52
2023-03-05T08:22:29.120Z,17.17
2023-03-05T08:24:59.679Z,11.18
2023-03-05T08:27:29.243Z,13.93
2023-03-05T08:29:58.493Z,12.73
2023-03-05T08:32:30.236Z,8.68
2023-03-05T08:35:00.193Z,10.10
2023-03-05T08:37:29.837Z,8.00
2023-03-05T08:39:59.288Z,10.77
2023-03-05T08:42:28.578Z,6.90
2023-03-05T08:44:57.891Z,7.35
2023-03-05T08:47:28.791Z,11.65
2023-03-05T08:49:58.879Z,9.68
2023-03-05T08:52:28.304Z,7.68
2023-03-05T08:54:57.688Z,7.00
2023-03-05T08:57:26.938Z,7.72
2023-03-05T08:59:56.750Z,7.43
2023-03-05T09:02:26.255Z,8.48
2023-03-05T09:04:56.991Z,46.97
2023-03-05T09:07:26.478Z,29.58
2023-03-05T09:09:55.666Z,29.38
2023-03-05T09:12:25.004Z,20.92
2023-03-05T09:14:56.197Z,18.45
2023-03-05T09:17:25.910Z,16.52
2023-03-05T09:19:57.857Z,15.75
2023-03-05T09:22:27.102Z,13.98
2023-03-05T09:24:56.317Z,12.80
2023-03-05T09:27:25.994Z,11.75
2023-03-05T09:29:55.826Z,12.27
2023-03-05T09:32:25.018Z,16.50
2023-03-05T09:34:54.245Z,15.00
2023-03-05T09:37:25.020Z,17.48
2023-03-05T09:39:54.197Z,14.43
2023-03-05T09:42:34.362Z,15.65
2023-03-05T09:45:18.587Z,11.45
2023-03-05T09:47:59.356Z,10.77
2023-03-05T09:50:37.677Z,11.27
2023-03-05T09:53:17.985Z,11.55
2023-03-05T09:55:52.072Z,11.32
2023-03-05T09:58:36.707Z,13.95
2023-03-05T10:01:10.060Z,11.70
2023-03-05T10:03:52.488Z,10.52
2023-03-05T10:06:26.542Z,13.30
2023-03-05T10:09:00.119Z,10.75
2023-03-05T10:11:51.504Z,15.45
2023-03-05T10:14:29.671Z,11.38
2023-03-05T10:17:38.283Z,14.52
2023-03-05T10:20:36.963Z,14.55
2023-03-05T10:23:21.520Z,14.27
2023-03-05T10:26:22.665Z,12.63
2023-03-05T10:29:03.490Z,12.35
2023-03-05T10:31:39.711Z,11.70
2023-03-05T10:34:39.636Z,11.20
2023-03-05T10:37:38.484Z,10.68
2023-03-05T10:40:20.105Z,11.45
2023-03-05T10:42:57.874Z,8.95
2023-03-05T10:45:32.302Z,9.15
2023-03-05T10:48:07.601Z,9.00
2023-03-05T10:50:41.741Z,9.13
2023-03-05T10:53:21.554Z,8.40
2023-03-05T10:55:56.270Z,8.77
2023-03-05T10:58:27.345Z,8.90
2023-03-05T11:01:05.917Z,12.32
2023-03-05T11:03:51.074Z,12.60
2023-03-05T11:06:37.425Z,10.40
2023-03-05T11:09:24.391Z,22.05
2023-03-05T11:12:12.847Z,14.93
2023-03-05T11:14:45.689Z,24.88
2023-03-05T11:17:33.043Z,24.38
2023-03-05T11:20:34.034Z,12.77
2023-03-05T11:23:10.873Z,14.00
2023-03-05T11:25:54.319Z,20.38
2023-03-05T11:28:33.012Z,14.65
2023-03-05T11:31:09.032Z,14.93
2023-03-05T11:33:39.063Z,12.80
2023-03-05T11:36:25.218Z,13.70
2023-03-05T11:38:56.872Z,13.07
2023-03-05T11:41:34.009Z,13.60
2023-03-05T11:44:05.926Z,10.18
2023-03-05T11:46:42.465Z,12.32
2023-03-05T11:49:17.283Z,9.80
2023-03-05T11:51:54.383Z,8.55
2023-03-05T11:54:31.799Z,12.50
2023-03-05T11:57:04.051Z,8.32
2023-03-05T11:59:37.165Z,10.35
2023-03-05T12:02:19.710Z,8.48
2023-03-05T12:04:50.127Z,9.15
2023-03-05T12:07:23.686Z,8.07
2023-03-05T12:09:54.505Z,9.90
2023-03-05T12:12:38.580Z,8.23
2023-03-05T12:15:35.128Z,10.55
2023-03-05T12:18:27.617Z,9.90
2023-03-05T12:21:05.775Z,7.97
2023-03-05T12:23:50.013Z,8.52
2023-03-05T12:26:19.811Z,10.48
2023-03-05T12:29:01.479Z,10.73
2023-03-05T12:31:39.535Z,9.27
2023-03-05T12:34:48.828Z,8.63
2023-03-05T12:37:51.446Z,9.13
2023-03-05T12:40:25.586Z,9.30
2023-03-05T12:42:57.135Z,10.68
2023-03-05T12:45:40.891Z,10.40
2023-03-05T12:48:45.585Z,8.63
2023-03-05T12:51:41.191Z,8.43
2023-03-05T12:54:31.089Z,9.32
2023-03-05T12:57:02.737Z,9.60
2023-03-05T12:59:43.577Z,8.98
2023-03-05T13:02:23.247Z,8.52
2023-03-05T13:04:54.688Z,11.02
2023-03-05T13:07:25.528Z,9.57
2023-03-05T13:09:55.937Z,10.95
2023-03-05T13:12:27.466Z,9.45
2023-03-05T13:15:01.341Z,8.32
2023-03-05T13:17:33.673Z,8.85
2023-03-05T13:20:07.637Z,8.23
2023-03-05T13:22:39.135Z,8.65
2023-03-05T13:25:17.198Z,8.52
2023-03-05T13:27:46.456Z,8.70
2023-03-05T13:30:23.372Z,9.98
2023-03-05T13:32:54.436Z,8.38
2023-03-05T13:35:24.311Z,7.85
2023-03-05T13:37:55.105Z,8.85
2023-03-05T13:40:26.613Z,8.60
2023-03-05T13:42:56.860Z,9.68
2023-03-05T13:45:28.927Z,8.40
2023-03-05T13:48:02.322Z,8.65
2023-03-05T13:50:33.795Z,9.02
2023-03-05T13:53:19.437Z,8.10
2023-03-05T13:55:49.209Z,8.75
2023-03-05T13:58:48.711Z,8.93
2023-03-05T14:01:27.866Z,9.10
2023-03-05T14:03:58.960Z,8.73
2023-03-05T14:06:31.143Z,7.90
2023-03-05T14:09:07.332Z,8.25
2023-03-05T14:11:37.396Z,8.20
2023-03-05T14:14:17.921Z,8.23
2023-03-05T14:16:47.599Z,9.23
2023-03-05T14:19:34.967Z,8.57
2023-03-05T14:22:05.602Z,8.13
2023-03-05T14:24:36.259Z,8.43
2023-03-05T14:27:13.559Z,8.57
2023-03-05T14:29:46.869Z,9.82
2023-03-05T14:32:24.659Z,8.48
2023-03-05T14:34:58.029Z,8.00
2023-03-05T14:37:30.919Z,7.72
2023-03-05T14:40:05.601Z,8.27
2023-03-05T14:42:39.183Z,8.07
2023-03-05T14:45:14.231Z,7.50
2023-03-05T14:47:43.766Z,7.60
2023-03-05T14:50:16.590Z,8.10
2023-03-05T14:52:46.527Z,8.07
2023-03-05T14:55:19.398Z,8.40
2023-03-05T14:57:51.781Z,7.75
2023-03-05T15:00:23.116Z,8.25
2023-03-05T15:02:52.537Z,8.38
2023-03-05T15:05:22.242Z,7.95
2023-03-05T15:07:52.710Z,8.70
2023-03-05T15:10:26.847Z,7.65
2023-03-05T15:12:56.151Z,7.68
2023-03-05T15:15:25.375Z,7.10
2023-03-05T15:17:55.251Z,8.48
2023-03-05T15:20:27.364Z,7.82
2023-03-05T15:22:57.033Z,8.20
2023-03-05T15:25:28.889Z,10.18
2023-03-05T15:27:59.701Z,15.13
2023-03-05T15:30:33.436Z,16.48
2023-03-05T15:33:05.440Z,15.45
2023-03-05T15:35:35.323Z,11.27
2023-03-05T15:38:05.113Z,7.85
2023-03-05T15:40:36.973Z,10.43
2023-03-05T15:43:07.212Z,11.02
2023-03-05T15:45:36.852Z,11.57
2023-03-05T15:48:06.968Z,11.88
2023-03-05T15:50:36.311Z,7.32
2023-03-05T15:53:05.983Z,8.90
2023-03-05T15:55:40.297Z,9.77
2023-03-05T15:58:10.358Z,8.45
2023-03-05T16:00:43.205Z,9.90
2023-03-05T16:03:12.973Z,7.55
2023-03-05T16:05:42.594Z,5.90
2023-03-05T16:08:12.098Z,8.77
2023-03-05T16:10:43.047Z,8.98
2023-03-05T16:13:14.966Z,9.27
2023-03-05T16:15:44.912Z,9.05
2023-03-05T16:18:16.869Z,7.38
2023-03-05T16:20:46.568Z,15.68
2023-03-05T16:23:16.058Z,12.77
2023-03-05T16:25:46.963Z,13.60
2023-03-05T16:28:16.661Z,12.65
2023-03-05T16:30:46.506Z,12.88
2023-03-05T16:33:16.041Z,11.40
2023-03-05T16:35:45.836Z,17.40
2023-03-05T16:38:16.606Z,13.82
2023-03-05T16:41:08.184Z,12.73
2023-03-05T16:43:37.106Z,11.27
2023-03-05T16:46:06.802Z,12.93
2023-03-05T16:48:36.148Z,11.07
2023-03-05T16:51:06.522Z,14.38
2023-03-05T16:53:35.819Z,10.30
2023-03-05T16:56:08.125Z,10.38
2023-03-05T16:58:39.014Z,12.05
2023-03-05T17:01:11.323Z,11.55
2023-03-05T17:03:41.756Z,7.15
2023-03-05T17:06:13.264Z,6.80
2023-03-05T17:08:43.445Z,8.02
2023-03-05T17:11:15.278Z,14.88
2023-03-05T17:13:47.644Z,15.82
2023-03-05T17:16:19.942Z,17.25
2023-03-05T17:18:49.751Z,11.85
2023-03-05T17:21:19.454Z,11.38
2023-03-05T17:23:48.821Z,10.32
2023-03-05T17:26:21.701Z,8.75
2023-03-05T17:28:53.573Z,10.02
2023-03-05T17:31:24.369Z,7.97
2023-03-05T17:33:55.522Z,8.95
2023-03-05T17:36:26.858Z,6.90
2023-03-05T17:38:56.636Z,7.28
2023-03-05T17:41:27.390Z,7.75
2023-03-05T17:43:56.770Z,8.13
2023-03-05T17:46:26.251Z,9.80
2023-03-05T17:48:55.428Z,14.90
2023-03-05T17:51:25.564Z,11.07
2023-03-05T17:53:54.789Z,11.82
2023-03-05T17:56:25.235Z,14.90
2023-03-05T17:58:57.976Z,10.65
2023-03-05T18:01:34.865Z,9.00
2023-03-05T18:04:04.366Z,7.82
2023-03-05T18:06:33.969Z,7.13
2023-03-05T18:09:03.322Z,10.43
2023-03-05T18:11:34.202Z,7.38
2023-03-05T18:14:05.746Z,6.35
2023-03-05T18:16:37.087Z,8.85
2023-03-05T18:19:06.650Z,7.32
2023-03-05T18:21:37.206Z,7.25
2023-03-05T18:24:07.707Z,6.32
2023-03-05T18:26:37.053Z,6.38
2023-03-05T18:29:08.137Z,5.97
2023-03-05T18:31:38.224Z,5.25
2023-03-05T18:34:07.613Z,9.35
2023-03-05T18:36:36.821Z,7.95
2023-03-05T18:39:06.177Z,6.25
2023-03-05T18:41:35.379Z,11.05
2023-03-05T18:44:07.390Z,10.48
2023-03-05T18:46:38.297Z,7.30
2023-03-05T18:49:08.714Z,12.60
2023-03-05T18:51:38.986Z,8.60
2023-03-05T18:54:08.310Z,10.82
2023-03-05T18:56:49.919Z,10.02
2023-03-05T18:59:19.240Z,12.70
2023-03-05T19:01:49.947Z,9.52
2023-03-05T19:04:43.323Z,12.20
2023-03-05T19:07:20.364Z,10.90
2023-03-05T19:09:54.928Z,10.45
2023-03-05T19:12:26.663Z,7.53
2023-03-05T19:14:55.894Z,8.00
2023-03-05T19:17:27.422Z,10.52
2023-03-05T19:19:59.197Z,7.53
2023-03-05T19:22:29.665Z,8.75
2023-03-05T19:25:02.002Z,6.47
2023-03-05T19:27:31.565Z,5.40
2023-03-05T19:30:01.520Z,7.20
2023-03-05T19:32:32.991Z,6.35
2023-03-05T19:35:02.755Z,6.88
2023-03-05T19:37:33.504Z,8.63
2023-03-05T19:40:03.418Z,6.38
2023-03-05T19:42:33.478Z,6.30
2023-03-05T19:45:03.175Z,6.70
2023-03-05T19:47:34.600Z,5.82
2023-03-05T19:50:05.631Z,6.53
2023-03-05T19:52:35.554Z,5.95
2023-03-05T19:55:05.256Z,5.78
2023-03-05T19:57:35.144Z,5.15
2023-03-05T20:00:05.777Z,5.15
2023-03-05T20:02:36.782Z,4.85
2023-03-05T20:05:07.292Z,6.90
2023-03-05T20:07:36.769Z,6.65
2023-03-05T20:10:07.185Z,4.82
2023-03-05T20:12:36.829Z,5.78
2023-03-05T20:15:07.299Z,6.05
2023-03-05T20:17:38.638Z,5.95
2023-03-05T20:20:09.508Z,4.97
2023-03-05T20:22:39.532Z,6.55
2023-03-05T20:25:09.481Z,5.82
2023-03-05T20:27:39.033Z,5.20
2023-03-05T20:30:10.849Z,6.55
2023-03-05T20:32:42.435Z,6.97
2023-03-05T20:35:15.543Z,5.25
2023-03-05T20:38:00.448Z,5.07
2023-03-05T20:40:29.730Z,7.18
2023-03-05T20:42:58.899Z,6.32
2023-03-05T20:45:28.172Z,7.28
2023-03-05T20:47:58.750Z,5.50
2023-03-05T20:50:29.133Z,8.23
2023-03-05T20:52:58.952Z,6.05
2023-03-05T20:55:28.885Z,7.10
2023-03-05T20:57:58.432Z,9.40
2023-03-05T21:00:27.957Z,6.35
2023-03-05T21:02:58.914Z,7.47
2023-03-05T21:05:30.348Z,6.97
2023-03-05T21:08:00.469Z,6.15
2023-03-05T21:10:29.720Z,6.40
2023-03-05T21:13:00.758Z,7.47
2023-03-05T21:15:31.371Z,7.18
2023-03-05T21:18:02.232Z,6.95
2023-03-05T21:20:32.036Z,6.30
2023-03-05T21:23:01.309Z,6.38
2023-03-05T21:25:31.707Z,6.80
2023-03-05T21:28:03.409Z,6.85
2023-03-05T21:30:35.250Z,6.45
2023-03-05T21:33:09.100Z,7.60
2023-03-05T21:35:39.236Z,6.90
2023-03-05T21:38:09.954Z,7.25
2023-03-05T21:40:43.752Z,7.47
2023-03-05T21:43:13.927Z,8.55
2023-03-05T21:45:44.028Z,6.90
2023-03-05T21:48:15.147Z,6.88
2023-03-05T21:50:46.090Z,7.15
2023-03-05T21:53:16.873Z,7.38
2023-03-05T21:56:03.252Z,7.10
2023-03-05T21:58:33.719Z,7.50
2023-03-05T22:01:03.371Z,9.10
2023-03-05T22:03:34.952Z,7.55
2023-03-05T22:06:04.446Z,8.77
2023-03-05T22:08:33.620Z,8.98
2023-03-05T22:11:03.003Z,8.00
2023-03-05T22:13:32.183Z,7.22
2023-03-05T22:16:01.484Z,7.53
2023-03-05T22:18:32.264Z,7.32
2023-03-05T22:21:03.575Z,7.80
2023-03-05T22:23:35.396Z,7.20
2023-03-05T22:26:06.405Z,8.15
2023-03-05T22:28:39.074Z,7.97
2023-03-05T22:31:08.463Z,8.13
2023-03-05T22:33:37.691Z,7.28
2023-03-05T22:36:13.395Z,7.82
2023-03-05T22:38:42.862Z,8.18
2023-03-05T22:41:14.195Z,7.55
2023-03-05T22:43:43.846Z,8.65
2023-03-05T22:46:15.348Z,7.70
2023-03-05T22:48:44.842Z,8.32
2023-03-05T22:51:16.148Z,7.82
2023-03-05T22:53:46.214Z,7.63
2023-03-05T22:56:16.988Z,8.50
2023-03-05T22:58:46.898Z,8.25
2023-03-05T23:01:17.998Z,8.68
2023-03-05T23:03:55.665Z,8.40
2023-03-05T23:06:26.396Z,8.35
2023-03-05T23:08:55.882Z,8.25
2023-03-05T23:11:25.075Z,8.00
2023-03-05T23:13:54.213Z,9.00
2023-03-05T23:16:23.462Z,8.48
2023-03-05T23:18:52.620Z,8.70
2023-03-05T23:21:21.990Z,8.57
2023-03-05T23:23:53.279Z,8.77
2023-03-05T23:26:22.827Z,8.38
2023-03-05T23:28:52.053Z,7.95
2023-03-05T23:31:21.316Z,8.85
2023-03-05T23:33:50.562Z,8.13
2023-03-05T23:36:20.424Z,10.50
2023-03-05T23:38:51.803Z,8.43
2023-03-05T23:41:22.379Z,9.93
2023-03-05T23:43:51.659Z,8.57
2023-03-05T23:46:20.949Z,8.05
2023-03-05T23:48:50.274Z,8.65
2023-03-05T23:51:19.514Z,8.48
2023-03-05T23:53:48.969Z,8.48
2023-03-05T23:56:18.412Z,7.90
2023-03-05T23:58:48.982Z,8.35
